Time;durP1;ratioP1;P1;durP2;ratioP2;P2;SDS_P1;SDS_P2;PMS_P1;PMS_P2;Temp;Humidity;BMP_temperature;BMP_pressure;BME280_temperature;BME280_humidity;BME280_pressure;Samples;Min_cycle;Max_cycle;Signal;HPM_P1;HPM_P2
2023/01/14 00:01:23;;;;;;;;;;;;;;;2.62;100.00;96873.38;5073617;28;19956;-71
2023/01/14 00:03:49;;;;;;;;;;;;;;;2.60;100.00;96880.50;5073270;28;19945;-71
2023/01/14 00:06:17;;;;;;;;;;;;;;;2.61;100.00;96889.88;5073802;28;19958;-71
2023/01/14 00:08:44;;;;;;;;;;;;;;;2.61;100.00;96889.06;5073076;28;19948;-72
2023/01/14 00:11:11;;;;;;;;;;;;;;;2.61;100.00;96886.47;5072451;28;20342;-72
2023/01/14 00:13:38;;;;;;;;;;;;;;;2.61;100.00;96878.72;5073203;28;19952;-71
2023/01/14 00:16:05;;;;;;;;;;;;;;;2.60;100.00;96884.84;5073017;28;19962;-71
2023/01/14 00:18:32;;;;;;;;;;;;;;;2.59;100.00;96888.41;5073699;28;19997;-71
2023/01/14 00:21:04;;;;;;;;;;;;;;;2.61;100.00;96902.81;5073146;28;19946;-71
2023/01/14 00:23:31;;;;;;;;;;;;;;;2.61;100.00;96902.81;5072943;28;19943;-71
2023/01/14 00:26:05;;;;;;;;;;;;;;;2.61;100.00;96907.19;5072949;28;20413;-71
2023/01/14 00:28:31;;;;;;;;;;;;;;;2.62;100.00;96913.97;5073056;28;19971;-71
2023/01/14 00:31:01;;;;;;;;;;;;;;;2.64;100.00;96910.25;5072286;28;19944;-72
2023/01/14 00:33:27;;;;;;;;;;;;;;;2.68;100.00;96912.53;5060430;28;19951;-71
2023/01/14 00:35:53;;;;;;;;;;;;;;;2.72;100.00;96906.09;5072967;28;20492;-71
2023/01/14 00:38:19;;;;;;;;;;;;;;;2.75;100.00;96904.00;5072801;28;19952;-71
2023/01/14 00:40:45;;;;;;;;;;;;;;;2.78;100.00;96903.69;5073632;28;20364;-71
2023/01/14 00:43:10;;;;;;;;;;;;;;;2.82;100.00;96893.81;5076254;28;20009;-71
2023/01/14 00:45:36;;;;;;;;;;;;;;;2.84;100.00;96887.50;5076648;28;19953;-71
2023/01/14 00:48:02;;;;;;;;;;;;;;;2.87;100.00;96883.78;5076780;28;19946;-71
2023/01/14 00:50:28;;;;;;;;;;;;;;;2.89;100.00;96876.66;5076567;28;19951;-71
2023/01/14 00:52:54;;;;;;;;;;;;;;;2.91;100.00;96873.94;5076384;28;20386;-71
2023/01/14 00:55:20;;;;;;;;;;;;;;;2.92;100.00;96867.75;5076380;28;19956;-71
2023/01/14 00:57:46;;;;;;;;;;;;;;;2.90;100.00;96862.75;5076487;28;19957;-71
2023/01/14 01:00:12;;;;;;;;;;;;;;;2.89;100.00;96874.06;5076261;28;20372;-71
2023/01/14 01:02:38;;;;;;;;;;;;;;;2.85;100.00;96865.81;5075353;28;19946;-71
2023/01/14 01:05:04;;;;;;;;;;;;;;;2.83;100.00;96875.53;5076201;28;19964;-71
2023/01/14 01:07:30;;;;;;;;;;;;;;;2.78;100.00;96882.94;5076380;28;19949;-71
2023/01/14 01:09:56;;;;;;;;;;;;;;;2.74;100.00;96884.25;5076213;28;19963;-71
2023/01/14 01:12:22;;;;;;;;;;;;;;;2.71;100.00;96889.75;5076513;28;20043;-71
2023/01/14 01:14:47;;;;;;;;;;;;;;;2.70;100.00;96895.06;5074917;28;19984;-71
2023/01/14 01:17:13;;;;;;;;;;;;;;;2.68;100.00;96900.41;5076137;28;20468;-71
2023/01/14 01:19:39;;;;;;;;;;;;;;;2.65;100.00;96900.72;5075960;28;20014;-71
2023/01/14 01:22:05;;;;;;;;;;;;;;;2.66;100.00;96904.13;5075802;28;19948;-72
2023/01/14 01:24:31;;;;;;;;;;;;;;;2.65;100.00;96913.69;5075922;28;19985;-71
2023/01/14 01:26:57;;;;;;;;;;;;;;;2.66;100.00;96911.88;5075752;28;20354;-71
2023/01/14 01:29:23;;;;;;;;;;;;;;;2.65;100.00;96913.69;5075069;28;19955;-71
2023/01/14 01:31:49;;;;;;;;;;;;;;;2.67;100.00;96916.09;5076161;28;19954;-71
2023/01/14 01:34:15;;;;;;;;;;;;;;;2.67;100.00;96910.91;5075682;28;19955;-71
2023/01/14 01:36:40;;;;;;;;;;;;;;;2.67;100.00;96921.25;5074857;28;19960;-72
2023/01/14 01:39:07;;;;;;;;;;;;;;;2.68;100.00;96912.53;5075750;28;19953;-71
2023/01/14 01:41:33;;;;;;;;;;;;;;;2.67;100.00;96919.50;5075475;28;19965;-71
2023/01/14 01:43:59;;;;;;;;;;;;;;;2.67;100.00;96921.25;5076040;28;19948;-71
2023/01/14 01:46:25;;;;;;;;;;;;;;;2.68;100.00;96936.66;5075565;28;19959;-71
2023/01/14 01:48:52;;;;;;;;;;;;;;;2.70;100.00;96931.31;5075537;28;19958;-72
2023/01/14 01:51:19;;;;;;;;;;;;;;;2.72;100.00;96930.19;5075512;28;20297;-72
2023/01/14 01:53:48;;;;;;;;;;;;;;;2.73;100.00;96933.59;5074910;28;20299;-71
2023/01/14 01:56:17;;;;;;;;;;;;;;;2.75;100.00;96940.25;5075304;28;19956;-71
2023/01/14 01:58:44;;;;;;;;;;;;;;;2.79;100.00;96940.75;5075329;28;20788;-72
2023/01/14 02:01:10;;;;;;;;;;;;;;;2.80;100.00;96943.19;5075203;28;19953;-71
2023/01/14 02:03:39;;;;;;;;;;;;;;;2.81;100.00;96934.47;5073827;28;20433;-72
2023/01/14 02:06:05;;;;;;;;;;;;;;;2.83;100.00;96923.91;5075125;28;19956;-71
2023/01/14 02:08:33;;;;;;;;;;;;;;;2.84;100.00;96928.16;5075460;28;19954;-71
2023/01/14 02:11:17;;;;;;;;;;;;;;;2.85;100.00;96924.56;5074873;28;19965;-71
2023/01/14 02:13:43;;;;;;;;;;;;;;;2.84;100.00;96922.97;5074965;28;19953;-72
2023/01/14 02:16:14;;;;;;;;;;;;;;;2.83;100.00;96929.94;5074839;28;20416;-71
2023/01/14 02:18:50;;;;;;;;;;;;;;;2.81;100.00;96924.09;5075294;28;19950;-72
2023/01/14 02:21:20;;;;;;;;;;;;;;;2.78;100.00;96923.59;5074914;28;19950;-71
2023/01/14 02:23:55;;;;;;;;;;;;;;;2.74;100.00;96927.47;5074789;28;19947;-71
2023/01/14 02:26:39;;;;;;;;;;;;;;;2.69;100.00;96927.09;5074551;28;20298;-71
2023/01/14 02:29:25;;;;;;;;;;;;;;;2.63;100.00;96925.97;5073958;28;19945;-71
2023/01/14 02:32:10;;;;;;;;;;;;;;;2.61;100.00;96920.13;5065544;28;20295;-71
2023/01/14 02:34:41;;;;;;;;;;;;;;;2.57;100.00;96935.16;5074504;28;20312;-71
2023/01/14 02:37:17;;;;;;;;;;;;;;;2.56;100.00;96924.94;5074485;28;19967;-71
2023/01/14 02:39:51;;;;;;;;;;;;;;;2.54;100.00;96925.13;5074517;28;19951;-71
2023/01/14 02:45:11;;;;;;;;;;;;;;;2.49;100.00;96929.94;5074484;28;20446;-71
2023/01/14 02:47:39;;;;;;;;;;;;;;;2.47;100.00;96924.09;5074154;28;20407;-72
2023/01/14 02:50:06;;;;;;;;;;;;;;;2.46;100.00;96913.91;5062069;28;19946;-71
2023/01/14 02:52:32;;;;;;;;;;;;;;;2.43;100.00;96917.63;5073442;28;20408;-71
2023/01/14 02:55:00;;;;;;;;;;;;;;;2.40;100.00;96916.16;5073618;28;19954;-72
2023/01/14 02:57:38;;;;;;;;;;;;;;;2.40;100.00;96913.56;5074283;28;20288;-71
2023/01/14 03:00:13;;;;;;;;;;;;;;;2.40;100.00;96910.16;5073938;28;19940;-71
2023/01/14 03:03:01;;;;;;;;;;;;;;;2.41;100.00;96907.41;5073877;28;19946;-71
2023/01/14 03:05:45;;;;;;;;;;;;;;;2.42;100.00;96906.47;5073582;28;19978;-72
2023/01/14 03:08:14;;;;;;;;;;;;;;;2.43;100.00;96909.84;5074193;28;20330;-72
2023/01/14 03:10:49;;;;;;;;;;;;;;;2.42;100.00;96913.41;5074208;28;20393;-72
2023/01/14 03:13:29;;;;;;;;;;;;;;;2.41;100.00;96911.78;5073752;28;19947;-71
2023/01/14 03:15:58;;;;;;;;;;;;;;;2.38;100.00;96897.38;5073942;28;19947;-72
2023/01/14 03:18:33;;;;;;;;;;;;;;;2.37;100.00;96898.34;5073856;28;19943;-73
2023/01/14 03:21:01;;;;;;;;;;;;;;;2.37;100.00;96902.69;5072997;28;19936;-72
2023/01/14 03:23:29;;;;;;;;;;;;;;;2.35;100.00;96895.13;5073835;28;20315;-71
2023/01/14 03:25:57;;;;;;;;;;;;;;;2.33;100.00;96888.44;5073906;28;19948;-72
2023/01/14 03:28:24;;;;;;;;;;;;;;;2.31;100.00;96885.19;5073552;28;20404;-71
2023/01/14 03:30:53;;;;;;;;;;;;;;;2.29;100.00;96877.63;5073657;28;19942;-72
2023/01/14 03:33:24;;;;;;;;;;;;;;;2.28;100.00;96878.56;5073623;28;19951;-72
2023/01/14 03:35:52;;;;;;;;;;;;;;;2.27;100.00;96856.25;5073678;28;19945;-72
2023/01/14 03:38:35;;;;;;;;;;;;;;;2.27;100.00;96853.66;5073634;28;19938;-72
2023/01/14 03:41:03;;;;;;;;;;;;;;;2.28;100.00;96854.47;5073232;28;20000;-72
2023/01/14 03:43:36;;;;;;;;;;;;;;;2.26;100.00;96844.25;5073781;28;19953;-72
2023/01/14 03:46:02;;;;;;;;;;;;;;;2.25;100.00;96847.84;5073574;28;19953;-72
2023/01/14 03:48:28;;;;;;;;;;;;;;;2.24;100.00;96856.53;5073460;28;19953;-72
2023/01/14 03:50:54;;;;;;;;;;;;;;;2.22;100.00;96851.53;5073502;28;20034;-72
2023/01/14 03:53:26;;;;;;;;;;;;;;;2.23;100.00;96855.75;5073423;28;19948;-72
2023/01/14 03:56:02;;;;;;;;;;;;;;;2.23;100.00;96849.75;5073580;28;20033;-72
2023/01/14 03:58:28;;;;;;;;;;;;;;;2.21;100.00;96844.75;5073569;28;19946;-72
2023/01/14 04:01:02;;;;;;;;;;;;;;;2.21;100.00;96843.94;5073441;28;19952;-72
2023/01/14 04:03:28;;;;;;;;;;;;;;;2.18;100.00;96845.06;5073906;28;20339;-72
2023/01/14 04:05:55;;;;;;;;;;;;;;;2.19;100.00;96835.50;5073847;28;19952;-71
2023/01/14 04:08:22;;;;;;;;;;;;;;;2.18;100.00;96826.94;5072429;28;19948;-72
2023/01/14 04:10:48;;;;;;;;;;;;;;;2.19;100.00;96822.56;5072046;28;19966;-72
2023/01/14 04:16:01;;;;;;;;;;;;;;;2.18;100.00;96818.34;5075666;28;19957;-72
2023/01/14 04:18:27;;;;;;;;;;;;;;;2.16;100.00;96813.34;5077041;28;19952;-72
2023/01/14 04:20:53;;;;;;;;;;;;;;;2.14;100.00;96810.13;5077180;28;19942;-72
2023/01/14 04:23:19;;;;;;;;;;;;;;;2.13;100.00;96812.84;5077044;28;20458;-72
2023/01/14 04:25:45;;;;;;;;;;;;;;;2.09;100.00;96814.94;5077220;28;20008;-72
2023/01/14 04:28:11;;;;;;;;;;;;;;;2.07;100.00;96808.28;5076968;28;19951;-72
2023/01/14 04:30:37;;;;;;;;;;;;;;;2.05;100.00;96811.03;5077124;28;20041;-72
2023/01/14 04:33:03;;;;;;;;;;;;;;;2.05;100.00;96807.63;5076807;28;19948;-72
2023/01/14 04:35:29;;;;;;;;;;;;;;;2.02;100.00;96798.41;5077167;28;20431;-72
2023/01/14 04:37:55;;;;;;;;;;;;;;;2.03;100.00;96800.03;5076548;28;21109;-72
2023/01/14 04:40:21;;;;;;;;;;;;;;;2.02;100.00;96804.41;5076726;28;19959;-72
2023/01/14 04:42:48;;;;;;;;;;;;;;;2.01;100.00;96810.53;5077192;28;19958;-72
2023/01/14 04:45:14;;;;;;;;;;;;;;;2.00;100.00;96802.94;5076602;28;20404;-72
2023/01/14 04:47:40;;;;;;;;;;;;;;;1.97;100.00;96800.63;5076608;28;19953;-72
2023/01/14 04:52:51;;;;;;;;;;;;;;;1.92;100.00;96788.19;5076890;28;19956;-72
2023/01/14 04:55:17;;;;;;;;;;;;;;;1.90;100.00;96786.72;5076627;28;20477;-72
2023/01/14 04:57:43;;;;;;;;;;;;;;;1.87;100.00;96779.25;5076616;28;19970;-72
2023/01/14 05:00:09;;;;;;;;;;;;;;;1.85;100.00;96776.84;5076366;28;20364;-72
2023/01/14 05:02:36;;;;;;;;;;;;;;;1.85;100.00;96781.19;5076315;28;19954;-72
2023/01/14 05:05:02;;;;;;;;;;;;;;;1.86;100.00;96785.41;5076380;28;20418;-72
2023/01/14 05:07:28;;;;;;;;;;;;;;;1.88;100.00;96786.88;5076505;28;19951;-72
2023/01/14 05:09:53;;;;;;;;;;;;;;;1.91;100.00;96794.34;5059357;28;19948;-72
2023/01/14 05:12:19;;;;;;;;;;;;;;;1.93;100.00;96791.56;5076385;28;19985;-72
2023/01/14 05:14:45;;;;;;;;;;;;;;;1.96;100.00;96786.91;5076164;28;20511;-72
2023/01/14 05:17:11;;;;;;;;;;;;;;;2.00;100.00;96782.25;5076283;28;19968;-72
2023/01/14 05:19:37;;;;;;;;;;;;;;;2.04;100.00;96788.72;5076132;28;20012;-72
2023/01/14 05:22:03;;;;;;;;;;;;;;;2.08;100.00;96786.63;5075854;28;20008;-72
2023/01/14 05:24:29;;;;;;;;;;;;;;;2.11;100.00;96789.72;5076322;28;19952;-72
2023/01/14 05:26:56;;;;;;;;;;;;;;;2.15;100.00;96787.63;5075748;28;19993;-72
2023/01/14 05:29:21;;;;;;;;;;;;;;;2.19;100.00;96781.19;5076182;28;19950;-72
2023/01/14 05:31:47;;;;;;;;;;;;;;;2.23;100.00;96779.91;5074793;28;20321;-72
2023/01/14 05:34:15;;;;;;;;;;;;;;;2.29;100.00;96773.25;5075833;28;20016;-72
2023/01/14 05:36:41;;;;;;;;;;;;;;;2.33;100.00;96771.97;5075755;28;19968;-72
2023/01/14 05:39:07;;;;;;;;;;;;;;;2.38;100.00;96769.75;5075926;28;19952;-71
2023/01/14 05:41:33;;;;;;;;;;;;;;;2.40;100.00;96768.63;5075380;28;20461;-71
2023/01/14 05:46:45;;;;;;;;;;;;;;;2.49;100.00;96760.88;5075547;28;19952;-71
2023/01/14 05:49:11;;;;;;;;;;;;;;;2.46;100.00;96759.41;5075643;28;19951;-71
2023/01/14 05:51:36;;;;;;;;;;;;;;;2.49;100.00;96750.53;5075927;28;19955;-71
2023/01/14 05:54:02;;;;;;;;;;;;;;;2.49;100.00;96750.53;5075964;28;20369;-71
2023/01/14 05:56:28;;;;;;;;;;;;;;;2.50;100.00;96752.94;5075303;28;19954;-71
2023/01/14 05:58:54;;;;;;;;;;;;;;;2.53;100.00;96757.78;5075338;28;20299;-71
2023/01/14 06:06:56;;;;;;;;;;;;;;;2.59;100.00;96730.47;5033509;28;19959;-71
2023/01/14 06:09:22;;;;;;;;;;;;;;;2.60;100.00;96722.56;5075656;28;19998;-71
2023/01/14 06:12:01;;;;;;;;;;;;;;;2.60;100.00;96724.31;5074819;28;20046;-71
2023/01/14 06:14:34;;;;;;;;;;;;;;;2.61;100.00;96729.34;5075524;28;20485;-71
2023/01/14 06:17:04;;;;;;;;;;;;;;;2.60;100.00;96724.31;5074942;28;20465;-71
2023/01/14 06:19:30;;;;;;;;;;;;;;;2.60;100.00;96726.91;5075045;28;19953;-71
2023/01/14 06:21:56;;;;;;;;;;;;;;;2.58;100.00;96728.84;5074863;28;19999;-72
2023/01/14 06:24:22;;;;;;;;;;;;;;;2.58;100.00;96731.44;5074743;28;20005;-71
2023/01/14 06:26:48;;;;;;;;;;;;;;;2.57;100.00;96732.41;5074450;28;20367;-71
2023/01/14 06:29:14;;;;;;;;;;;;;;;2.58;100.00;96731.44;5074838;28;19946;-71
2023/01/14 06:31:40;;;;;;;;;;;;;;;2.60;100.00;96732.91;5074563;28;19945;-71
2023/01/14 06:34:06;;;;;;;;;;;;;;;2.62;100.00;96740.50;5074757;28;19966;-71
2023/01/14 06:36:33;;;;;;;;;;;;;;;2.62;100.00;96736.16;5074476;28;19974;-71
2023/01/14 06:38:59;;;;;;;;;;;;;;;2.65;100.00;96737.59;5074429;28;20399;-72
2023/01/14 06:41:25;;;;;;;;;;;;;;;2.68;100.00;96741.63;5075057;28;20325;-71
2023/01/14 06:43:51;;;;;;;;;;;;;;;2.71;100.00;96733.53;5074456;28;19954;-71
2023/01/14 06:46:18;;;;;;;;;;;;;;;2.72;100.00;96735.97;5074556;28;20411;-70
2023/01/14 06:48:44;;;;;;;;;;;;;;;2.77;100.00;96727.72;5074253;28;19943;-70
2023/01/14 06:51:12;;;;;;;;;;;;;;;2.77;100.00;96733.72;5072924;28;19941;-71
2023/01/14 06:53:39;;;;;;;;;;;;;;;2.79;100.00;96724.00;5074071;28;20427;-71
2023/01/14 06:56:06;;;;;;;;;;;;;;;2.80;100.00;96735.19;5074222;28;20410;-70
2023/01/14 06:58:32;;;;;;;;;;;;;;;2.81;100.00;96724.66;5073961;28;19970;-71
2023/01/14 07:00:58;;;;;;;;;;;;;;;2.82;100.00;96723.69;5074214;28;19959;-71
2023/01/14 07:03:25;;;;;;;;;;;;;;;2.82;100.00;96712.50;5074119;28;20311;-71
2023/01/14 07:05:51;;;;;;;;;;;;;;;2.84;100.00;96716.56;5074130;28;19944;-71
2023/01/14 07:08:17;;;;;;;;;;;;;;;2.86;100.00;96711.22;5073441;28;19948;-70
2023/01/14 07:10:48;;;;;;;;;;;;;;;2.87;100.00;96704.25;5074321;28;19954;-71
2023/01/14 07:13:15;;;;;;;;;;;;;;;2.90;100.00;96699.56;5073852;28;19975;-71
2023/01/14 07:15:42;;;;;;;;;;;;;;;2.93;100.00;96695.81;5073945;28;20322;-71
2023/01/14 07:18:08;;;;;;;;;;;;;;;2.94;100.00;96695.69;5073878;28;20454;-71
2023/01/14 07:20:34;;;;;;;;;;;;;;;2.96;100.00;96696.31;5073684;28;19951;-71
2023/01/14 07:23:01;;;;;;;;;;;;;;;2.99;100.00;96683.03;5073813;28;19950;-71
2023/01/14 07:25:26;;;;;;;;;;;;;;;3.03;100.00;96691.28;5073759;28;20016;-71
2023/01/14 07:27:52;;;;;;;;;;;;;;;3.04;100.00;96679.94;5072975;28;20449;-71
2023/01/14 07:30:18;;;;;;;;;;;;;;;3.07;100.00;96677.03;5074010;28;20006;-71
2023/01/14 07:32:44;;;;;;;;;;;;;;;3.11;100.00;96680.09;5073869;28;19994;-71
2023/01/14 07:35:10;;;;;;;;;;;;;;;3.12;100.00;96676.53;5073514;28;20471;-71
2023/01/14 07:37:36;;;;;;;;;;;;;;;3.16;100.00;96675.22;5073617;28;19964;-71
2023/01/14 07:40:02;;;;;;;;;;;;;;;3.17;100.00;96666.47;5073568;28;19994;-71
2023/01/14 07:42:28;;;;;;;;;;;;;;;3.19;100.00;96664.53;5073449;28;20438;-71
2023/01/14 07:44:54;;;;;;;;;;;;;;;3.21;100.00;96653.03;5073680;28;19994;-71
2023/01/14 07:47:20;;;;;;;;;;;;;;;3.23;100.00;96647.66;5073626;28;19973;-71
2023/01/14 07:49:46;;;;;;;;;;;;;;;3.27;100.00;96648.16;5073025;28;20450;-71
2023/01/14 07:52:15;;;;;;;;;;;;;;;3.30;100.00;96647.81;5073502;28;19947;-71
2023/01/14 07:54:41;;;;;;;;;;;;;;;3.33;100.00;96640.50;5073540;28;19981;-71
2023/01/14 07:57:08;;;;;;;;;;;;;;;3.38;100.00;96640.00;5073207;28;19967;-71
2023/01/14 07:59:34;;;;;;;;;;;;;;;3.40;100.00;96632.88;5073563;28;19944;-71
2023/01/14 08:02:00;;;;;;;;;;;;;;;3.45;100.00;96638.38;5073260;28;19999;-71
2023/01/14 08:04:25;;;;;;;;;;;;;;;3.49;100.00;96644.03;5073218;28;20393;-71
2023/01/14 08:06:51;;;;;;;;;;;;;;;3.50;100.00;96641.25;5073154;28;19981;-71
2023/01/14 08:09:17;;;;;;;;;;;;;;;3.55;100.00;96631.19;5073527;28;20013;-71
2023/01/14 08:11:44;;;;;;;;;;;;;;;3.59;100.00;96626.47;5073302;28;20431;-71
2023/01/14 08:14:10;;;;;;;;;;;;;;;3.63;100.00;96632.94;5073329;28;19950;-71
2023/01/14 08:16:36;;;;;;;;;;;;;;;3.68;100.00;96627.25;5073135;28;20041;-71
2023/01/14 08:19:01;;;;;;;;;;;;;;;3.71;100.00;96632.09;5073324;28;19964;-71
2023/01/14 08:21:27;;;;;;;;;;;;;;;3.75;100.00;96638.56;5073241;28;20120;-71
2023/01/14 08:23:53;;;;;;;;;;;;;;;3.77;100.00;96634.00;5072387;28;19994;-71
2023/01/14 08:26:19;;;;;;;;;;;;;;;3.80;100.00;96628.47;5073349;28;20479;-71
2023/01/14 08:28:45;;;;;;;;;;;;;;;3.82;100.00;96632.53;5073337;28;19974;-72
2023/01/14 08:31:12;;;;;;;;;;;;;;;3.83;100.00;96626.34;5073107;28;20039;-72
2023/01/14 08:33:42;;;;;;;;;;;;;;;3.84;100.00;96627.97;5072965;28;19953;-72
2023/01/14 08:36:10;;;;;;;;;;;;;;;3.86;100.00;96626.03;5072892;28;19953;-71
2023/01/14 08:38:37;;;;;;;;;;;;;;;3.88;100.00;96628.44;5073371;28;20443;-71
2023/01/14 08:41:10;;;;;;;;;;;;;;;3.90;100.00;96631.66;5072752;28;20330;-71
2023/01/14 08:43:36;;;;;;;;;;;;;;;3.94;100.00;96627.75;5072940;28;19954;-72
2023/01/14 08:46:03;;;;;;;;;;;;;;;3.98;100.00;96615.25;5073100;28;20408;-71
2023/01/14 08:48:29;;;;;;;;;;;;;;;4.03;100.00;96612.94;5072923;28;19947;-72
2023/01/14 08:51:02;;;;;;;;;;;;;;;4.10;100.00;96613.88;5073071;28;20480;-71
2023/01/14 08:53:29;;;;;;;;;;;;;;;4.13;100.00;96613.50;5072846;28;19948;-72
2023/01/14 08:55:58;;;;;;;;;;;;;;;4.16;100.00;96613.19;5060715;28;19946;-71
2023/01/14 08:58:25;;;;;;;;;;;;;;;4.20;100.00;96609.25;5072601;28;19958;-72
2023/01/14 09:00:55;;;;;;;;;;;;;;;4.25;100.00;96606.13;5073186;28;19949;-71
2023/01/14 09:03:20;;;;;;;;;;;;;;;4.30;100.00;96596.03;5075189;28;19944;-71
2023/01/14 09:05:46;;;;;;;;;;;;;;;4.34;100.00;96588.72;5076341;28;19995;-71
2023/01/14 09:19:12;;;;;;;;;;;;;;;4.53;100.00;96570.03;5076155;28;19956;-71
2023/01/14 09:21:38;;;;;;;;;;;;;;;4.54;100.00;96563.06;5075980;28;20317;-71
2023/01/14 09:24:04;;;;;;;;;;;;;;;4.58;100.00;96556.53;5076368;28;19999;-71
2023/01/14 09:26:30;;;;;;;;;;;;;;;4.61;100.00;96559.56;5075978;28;20331;-72
2023/01/14 09:28:56;;;;;;;;;;;;;;;4.65;100.00;96558.22;5076163;28;20296;-71
2023/01/14 09:31:22;;;;;;;;;;;;;;;4.71;100.00;96546.34;5075858;28;19987;-72
2023/01/14 09:33:48;;;;;;;;;;;;;;;4.79;100.00;96550.66;5075940;28;19996;-72
2023/01/14 09:36:13;;;;;;;;;;;;;;;4.86;100.00;96548.94;5075798;28;19950;-71
2023/01/14 09:38:39;;;;;;;;;;;;;;;4.92;100.00;96544.81;5075417;28;20003;-72
2023/01/14 09:41:05;;;;;;;;;;;;;;;4.99;100.00;96543.91;5075409;28;20057;-73
2023/01/14 09:43:31;;;;;;;;;;;;;;;5.05;100.00;96526.78;5075553;28;19953;-71
2023/01/14 09:46:00;;;;;;;;;;;;;;;5.15;100.00;96529.13;5075702;28;19986;-72
2023/01/14 09:48:28;;;;;;;;;;;;;;;5.23;100.00;96529.03;5075508;28;19947;-71
2023/01/14 09:51:08;;;;;;;;;;;;;;;5.29;100.00;96531.69;5075320;28;20312;-71
2023/01/14 09:53:34;;;;;;;;;;;;;;;5.36;100.00;96531.78;5074426;28;19967;-71
2023/01/14 09:56:11;;;;;;;;;;;;;;;5.42;100.00;96544.03;5075263;28;19953;-72
2023/01/14 09:58:39;;;;;;;;;;;;;;;5.49;100.00;96538.91;5075518;28;19982;-72
2023/01/14 10:01:23;;;;;;;;;;;;;;;5.52;100.00;96527.31;5075436;28;19948;-72
2023/01/14 10:04:08;;;;;;;;;;;;;;;5.53;100.00;96523.75;5075418;28;19955;-71
2023/01/14 10:06:35;;;;;;;;;;;;;;;5.53;100.00;96514.16;5075148;28;19942;-71
2023/01/14 10:09:05;;;;;;;;;;;;;;;5.54;100.00;96505.34;5075080;28;19949;-72
2023/01/14 10:11:35;;;;;;;;;;;;;;;5.52;100.00;96507.31;5075072;28;19955;-71
2023/01/14 10:14:04;;;;;;;;;;;;;;;5.55;100.00;96500.97;5074802;28;20323;-72
2023/01/14 10:16:37;;;;;;;;;;;;;;;5.58;100.00;96483.16;5075582;28;20406;-72
2023/01/14 10:19:14;;;;;;;;;;;;;;;5.61;100.00;96471.63;5075022;28;20423;-73
2023/01/14 10:21:39;;;;;;;;;;;;;;;5.66;100.00;96470.03;5074696;28;19941;-72
2023/01/14 10:24:10;;;;;;;;;;;;;;;5.70;100.00;96457.47;5074837;28;20043;-72
2023/01/14 10:26:38;;;;;;;;;;;;;;;5.77;100.00;96447.13;5074774;28;19950;-72
2023/01/14 10:29:11;;;;;;;;;;;;;;;5.82;100.00;96436.97;5074968;28;19959;-73
2023/01/14 10:31:38;;;;;;;;;;;;;;;5.85;100.00;96426.16;5074887;28;19943;-71
2023/01/14 10:34:05;;;;;;;;;;;;;;;5.88;100.00;96433.63;5074555;28;19958;-72
2023/01/14 10:36:31;;;;;;;;;;;;;;;5.90;100.00;96424.63;5074638;28;19944;-71
2023/01/14 10:38:59;;;;;;;;;;;;;;;5.95;100.00;96418.88;5074122;28;19958;-72
2023/01/14 10:44:16;;;;;;;;;;;;;;;6.05;100.00;96419.34;5074520;28;19962;-71
2023/01/14 10:46:45;;;;;;;;;;;;;;;6.08;100.00;96416.34;5074591;28;19942;-72
2023/01/14 10:49:22;;;;;;;;;;;;;;;6.13;100.00;96418.38;5074351;28;20518;-72
2023/01/14 10:51:49;;;;;;;;;;;;;;;6.15;100.00;96419.00;5074512;28;19945;-71
2023/01/14 10:54:15;;;;;;;;;;;;;;;6.17;100.00;96405.81;5074130;28;19949;-71
2023/01/14 10:56:43;;;;;;;;;;;;;;;6.19;100.00;96404.59;5074230;28;19951;-72
2023/01/14 10:59:30;;;;;;;;;;;;;;;6.21;100.00;96392.19;5073938;28;19948;-72
2023/01/14 11:01:56;;;;;;;;;;;;;;;6.23;100.00;96386.81;5074075;28;19942;-71
2023/01/14 11:04:25;;;;;;;;;;;;;;;6.24;100.00;96381.41;5074425;28;20292;-71
2023/01/14 11:06:51;;;;;;;;;;;;;;;6.27;100.00;96375.00;5074084;28;19954;-72
2023/01/14 11:09:21;;;;;;;;;;;;;;;6.32;100.00;96356.19;5073927;28;19952;-71
2023/01/14 11:11:48;;;;;;;;;;;;;;;6.34;100.00;96349.81;5072616;28;19950;-72
2023/01/14 11:14:36;;;;;;;;;;;;;;;6.35;100.00;96332.41;5073905;28;19950;-72
2023/01/14 11:17:20;;;;;;;;;;;;;;;6.39;100.00;96337.00;5060530;28;19965;-72
2023/01/14 11:19:46;;;;;;;;;;;;;;;6.42;100.00;96339.22;5073948;28;19967;-72
2023/01/14 11:22:12;;;;;;;;;;;;;;;6.46;100.00;96334.44;5074011;28;19980;-72
2023/01/14 11:24:40;;;;;;;;;;;;;;;6.49;100.00;96326.25;5073214;28;19951;-72
2023/01/14 11:27:12;;;;;;;;;;;;;;;6.52;100.00;96322.44;5073976;28;20348;-71
2023/01/14 11:29:43;;;;;;;;;;;;;;;6.54;100.00;96310.03;5073705;28;19954;-72
2023/01/14 11:32:10;;;;;;;;;;;;;;;6.54;100.00;96316.03;5073870;28;19952;-72
2023/01/14 11:34:42;;;;;;;;;;;;;;;6.57;100.00;96318.22;5073678;28;20394;-72
2023/01/14 11:37:10;;;;;;;;;;;;;;;6.59;100.00;96300.59;5073682;28;19953;-72
2023/01/14 11:39:45;;;;;;;;;;;;;;;6.60;100.00;96291.00;5073426;28;19968;-72
2023/01/14 11:42:26;;;;;;;;;;;;;;;6.61;100.00;96277.75;5072508;28;19975;-72
2023/01/14 11:45:07;;;;;;;;;;;;;;;6.64;100.00;96279.19;5073428;28;19955;-72
2023/01/14 11:47:44;;;;;;;;;;;;;;;6.65;100.00;96280.78;5073391;28;19943;-72
2023/01/14 11:50:30;;;;;;;;;;;;;;;6.67;100.00;96276.97;5073456;28;19981;-72
2023/01/14 11:53:01;;;;;;;;;;;;;;;6.67;100.00;96266.56;5073177;28;19946;-72
2023/01/14 11:55:29;;;;;;;;;;;;;;;6.67;100.00;96263.94;5065038;28;20413;-72
2023/01/14 11:58:00;;;;;;;;;;;;;;;6.70;100.00;96250.53;5072056;28;20323;-73
2023/01/14 12:00:27;;;;;;;;;;;;;;;6.68;100.00;96236.09;5072759;28;19946;-72
2023/01/14 12:02:57;;;;;;;;;;;;;;;6.69;100.00;96228.06;5073311;28;19958;-72
2023/01/14 12:05:24;;;;;;;;;;;;;;;6.70;100.00;96228.91;5073596;28;19951;-72
2023/01/14 12:07:52;;;;;;;;;;;;;;;6.69;100.00;96222.84;5073096;28;20431;-72
2023/01/14 12:10:20;;;;;;;;;;;;;;;6.71;100.00;96236.50;5073368;28;19963;-72
2023/01/14 12:18:26;;;;;;;;;;;;;;;6.72;100.00;96229.50;5072509;28;19965;-72
2023/01/14 12:20:53;;;;;;;;;;;;;;;6.71;100.00;96225.28;5072212;28;19942;-72
2023/01/14 12:23:22;;;;;;;;;;;;;;;6.71;100.00;96210.44;5073501;28;19945;-72
2023/01/14 12:25:49;;;;;;;;;;;;;;;6.71;100.00;96204.44;5073340;28;19941;-72
2023/01/14 12:28:15;;;;;;;;;;;;;;;6.69;100.00;96186.38;5073135;28;20423;-72
2023/01/14 12:30:45;;;;;;;;;;;;;;;6.68;99.55;96176.97;5072998;28;19974;-73
2023/01/14 12:33:20;;;;;;;;;;;;;;;6.70;100.00;96174.97;5073403;28;19960;-72
2023/01/14 12:36:04;;;;;;;;;;;;;;;6.71;100.00;96171.34;5073411;28;19960;-72
2023/01/14 12:47:05;;;;;;;;;;;;;;;6.74;100.00;96144.09;5077159;28;19945;-72
2023/01/14 12:49:32;;;;;;;;;;;;;;;6.75;100.00;96144.91;5076700;28;19947;-72
2023/01/14 12:51:59;;;;;;;;;;;;;;;6.76;99.93;96141.28;5076406;28;20455;-72
2023/01/14 12:54:27;;;;;;;;;;;;;;;6.77;98.81;96129.88;5076458;28;19947;-72
2023/01/14 12:56:55;;;;;;;;;;;;;;;6.78;100.00;96129.66;5076482;28;20398;-72
2023/01/14 12:59:32;;;;;;;;;;;;;;;6.79;100.00;96117.44;5076359;28;19961;-72
2023/01/14 13:02:00;;;;;;;;;;;;;;;6.80;100.00;96117.22;5076183;28;19951;-72
2023/01/14 13:04:28;;;;;;;;;;;;;;;6.82;100.00;96111.81;5076558;28;19946;-72
2023/01/14 13:07:04;;;;;;;;;;;;;;;6.85;100.00;96107.00;5076341;28;19954;-72
2023/01/14 13:09:35;;;;;;;;;;;;;;;6.87;100.00;96101.59;5076497;28;20402;-72
2023/01/14 13:12:01;;;;;;;;;;;;;;;6.90;100.00;96091.53;5076200;28;19953;-72
2023/01/14 13:14:35;;;;;;;;;;;;;;;6.91;99.50;96080.13;5076232;28;19993;-72
2023/01/14 13:17:06;;;;;;;;;;;;;;;6.96;99.17;96063.88;5062907;28;19945;-72
2023/01/14 13:19:34;;;;;;;;;;;;;;;7.01;98.67;96073.69;5076623;28;19986;-72
2023/01/14 13:22:01;;;;;;;;;;;;;;;7.03;99.07;96084.72;5076079;28;19950;-72
2023/01/14 13:24:29;;;;;;;;;;;;;;;7.05;96.91;96067.06;5076170;28;19954;-72
2023/01/14 13:26:56;;;;;;;;;;;;;;;7.10;97.06;96067.25;5076016;28;20321;-72
2023/01/14 13:29:24;;;;;;;;;;;;;;;7.15;96.50;96037.94;5076004;28;19947;-72
2023/01/14 13:31:50;;;;;;;;;;;;;;;7.19;98.32;96039.16;5075212;28;19960;-72
2023/01/14 13:34:21;;;;;;;;;;;;;;;7.23;96.42;96007.22;5075331;28;19951;-72
2023/01/14 13:37:08;;;;;;;;;;;;;;;7.28;97.34;96006.59;5075762;28;19954;-72
2023/01/14 13:39:34;;;;;;;;;;;;;;;7.31;97.46;96014.03;5075610;28;19977;-72